sensor_id;sensor_type;location;lat;lon;timestamp;pressure;altitude;pressure_sealevel;temperature;humidity
13954;BME280;7049;49.444;8.522;2023-05-09T00:04:57;-11160.47;;;-3.47;100.00
13954;BME280;7049;49.444;8.522;2023-05-09T00:09:59;-11160.47;;;-3.47;100.00
13954;BME280;7049;49.444;8.522;2023-05-09T00:15:00;-11160.47;;;-3.47;100.00
13954;BME280;7049;49.444;8.522;2023-05-09T00:20:05;-11160.47;;;-3.47;100.00
13954;BME280;7049;49.444;8.522;2023-05-09T00:25:10;-11160.47;;;-3.47;100.00
13954;BME280;7049;49.444;8.522;2023-05-09T00:30:11;-11160.47;;;-3.47;100.00
13954;BME280;7049;49.444;8.522;2023-05-09T00:35:14;-11160.47;;;-3.47;100.00
13954;BME280;7049;49.444;8.522;2023-05-09T00:40:16;-11160.47;;;-3.47;100.00
13954;BME280;7049;49.444;8.522;2023-05-09T00:45:17;-11160.47;;;-3.47;100.00
13954;BME280;7049;49.444;8.522;2023-05-09T00:50:20;-11160.47;;;-3.47;100.00
13954;BME280;7049;49.444;8.522;2023-05-09T00:55:22;-11160.47;;;-3.47;100.00
13954;BME280;7049;49.444;8.522;2023-05-09T01:00:24;-11160.47;;;-3.47;100.00
13954;BME280;7049;49.444;8.522;2023-05-09T01:05:29;-11160.47;;;-3.47;100.00
13954;BME280;7049;49.444;8.522;2023-05-09T01:10:38;-11160.47;;;-3.47;100.00
13954;BME280;7049;49.444;8.522;2023-05-09T01:15:48;-11160.47;;;-3.47;100.00
13954;BME280;7049;49.444;8.522;2023-05-09T01:20:57;-11160.47;;;-3.47;100.00
13954;BME280;7049;49.444;8.522;2023-05-09T01:26:03;-11160.47;;;-3.47;100.00
13954;BME280;7049;49.444;8.522;2023-05-09T01:31:07;-11160.47;;;-3.47;100.00
13954;BME280;7049;49.444;8.522;2023-05-09T01:36:12;-11160.47;;;-3.47;100.00
13954;BME280;7049;49.444;8.522;2023-05-09T01:41:16;-11160.47;;;-3.47;100.00
13954;BME280;7049;49.444;8.522;2023-05-09T01:46:21;-11160.47;;;-3.47;100.00
13954;BME280;7049;49.444;8.522;2023-05-09T01:51:25;-11160.47;;;-3.47;100.00
13954;BME280;7049;49.444;8.522;2023-05-09T01:56:27;-11160.47;;;-3.47;100.00
13954;BME280;7049;49.444;8.522;2023-05-09T02:01:30;-11160.47;;;-3.47;100.00
13954;BME280;7049;49.444;8.522;2023-05-09T02:06:32;-11160.47;;;-3.47;100.00
13954;BME280;7049;49.444;8.522;2023-05-09T02:11:34;-11160.47;;;-3.47;100.00
13954;BME280;7049;49.444;8.522;2023-05-09T02:16:37;-11160.47;;;-3.47;100.00
13954;BME280;7049;49.444;8.522;2023-05-09T02:21:40;-11160.47;;;-3.47;100.00
13954;BME280;7049;49.444;8.522;2023-05-09T02:26:41;-11160.47;;;-3.47;100.00
13954;BME280;7049;49.444;8.522;2023-05-09T02:31:45;-11160.47;;;-3.47;100.00
13954;BME280;7049;49.444;8.522;2023-05-09T02:36:48;-11160.47;;;-3.47;100.00
13954;BME280;7049;49.444;8.522;2023-05-09T02:41:50;-11160.47;;;-3.47;100.00
13954;BME280;7049;49.444;8.522;2023-05-09T02:46:53;-11160.47;;;-3.47;100.00
13954;BME280;7049;49.444;8.522;2023-05-09T02:51:54;-11160.47;;;-3.47;100.00
13954;BME280;7049;49.444;8.522;2023-05-09T02:56:55;-11160.47;;;-3.47;100.00
13954;BME280;7049;49.444;8.522;2023-05-09T03:01:59;-11160.47;;;-3.47;100.00
13954;BME280;7049;49.444;8.522;2023-05-09T03:07:04;-11160.47;;;-3.47;100.00
13954;BME280;7049;49.444;8.522;2023-05-09T03:12:05;-11160.47;;;-3.47;100.00
13954;BME280;7049;49.444;8.522;2023-05-09T03:17:08;-11160.47;;;-3.47;100.00
13954;BME280;7049;49.444;8.522;2023-05-09T03:22:09;-11160.47;;;-3.47;100.00
13954;BME280;7049;49.444;8.522;2023-05-09T03:27:11;-11160.47;;;-3.47;100.00
13954;BME280;7049;49.444;8.522;2023-05-09T03:32:14;-11160.47;;;-3.47;100.00
13954;BME280;7049;49.444;8.522;2023-05-09T03:37:15;-11160.47;;;-3.47;100.00
13954;BME280;7049;49.444;8.522;2023-05-09T03:42:17;-11160.47;;;-3.47;100.00
13954;BME280;7049;49.444;8.522;2023-05-09T03:47:19;-11160.47;;;-3.47;100.00
13954;BME280;7049;49.444;8.522;2023-05-09T03:52:21;-11160.47;;;-3.47;100.00
13954;BME280;7049;49.444;8.522;2023-05-09T03:57:22;-11160.47;;;-3.47;100.00
13954;BME280;7049;49.444;8.522;2023-05-09T04:02:25;-11160.47;;;-3.47;100.00
13954;BME280;7049;49.444;8.522;2023-05-09T04:07:27;-11160.47;;;-3.47;100.00
13954;BME280;7049;49.444;8.522;2023-05-09T04:12:28;-11160.47;;;-3.47;100.00
13954;BME280;7049;49.444;8.522;2023-05-09T04:17:31;-11160.47;;;-3.47;100.00
13954;BME280;7049;49.444;8.522;2023-05-09T04:22:32;-11160.47;;;-3.47;100.00
13954;BME280;7049;49.444;8.522;2023-05-09T04:27:34;-11160.47;;;-3.47;100.00
13954;BME280;7049;49.444;8.522;2023-05-09T04:32:36;-11160.47;;;-3.47;100.00
13954;BME280;7049;49.444;8.522;2023-05-09T04:37:39;-11160.47;;;-3.47;100.00
13954;BME280;7049;49.444;8.522;2023-05-09T04:42:40;-11160.47;;;-3.47;100.00
13954;BME280;7049;49.444;8.522;2023-05-09T04:47:44;-11160.47;;;-3.47;100.00
13954;BME280;7049;49.444;8.522;2023-05-09T04:52:45;-11160.47;;;-3.47;100.00
13954;BME280;7049;49.444;8.522;2023-05-09T04:57:46;-11160.47;;;-3.47;100.00
13954;BME280;7049;49.444;8.522;2023-05-09T05:02:49;-11160.47;;;-3.47;100.00
13954;BME280;7049;49.444;8.522;2023-05-09T05:07:50;-11160.47;;;-3.47;100.00
13954;BME280;7049;49.444;8.522;2023-05-09T05:12:52;-11160.47;;;-3.47;100.00
13954;BME280;7049;49.444;8.522;2023-05-09T05:17:55;-11160.47;;;-3.47;100.00
13954;BME280;7049;49.444;8.522;2023-05-09T05:22:56;-11160.47;;;-3.47;100.00
13954;BME280;7049;49.444;8.522;2023-05-09T05:27:58;-11160.47;;;-3.47;100.00
13954;BME280;7049;49.444;8.522;2023-05-09T05:33:00;-11160.47;;;-3.47;100.00
13954;BME280;7049;49.444;8.522;2023-05-09T05:38:02;-11160.47;;;-3.47;100.00
13954;BME280;7049;49.444;8.522;2023-05-09T05:43:03;-11160.47;;;-3.47;100.00
13954;BME280;7049;49.444;8.522;2023-05-09T05:48:06;-11160.47;;;-3.47;100.00
13954;BME280;7049;49.444;8.522;2023-05-09T05:53:07;-11160.47;;;-3.47;100.00
13954;BME280;7049;49.444;8.522;2023-05-09T05:58:09;-11160.47;;;-3.47;100.00
13954;BME280;7049;49.444;8.522;2023-05-09T06:03:12;-11160.47;;;-3.47;100.00
13954;BME280;7049;49.444;8.522;2023-05-09T06:08:13;-11160.47;;;-3.47;100.00
13954;BME280;7049;49.444;8.522;2023-05-09T06:13:15;-11160.47;;;-3.47;100.00
13954;BME280;7049;49.444;8.522;2023-05-09T06:18:17;-11160.47;;;-3.47;100.00
13954;BME280;7049;49.444;8.522;2023-05-09T06:23:19;-11160.47;;;-3.47;100.00
13954;BME280;7049;49.444;8.522;2023-05-09T06:28:21;-11160.47;;;-3.47;100.00
13954;BME280;7049;49.444;8.522;2023-05-09T06:33:24;-11160.47;;;-3.47;100.00
13954;BME280;7049;49.444;8.522;2023-05-09T06:38:25;-11160.47;;;-3.47;100.00
13954;BME280;7049;49.444;8.522;2023-05-09T06:43:27;-11160.47;;;-3.47;100.00
13954;BME280;7049;49.444;8.522;2023-05-09T06:48:29;-11160.47;;;-3.47;100.00
13954;BME280;7049;49.444;8.522;2023-05-09T06:53:31;-11160.47;;;-3.47;100.00
13954;BME280;7049;49.444;8.522;2023-05-09T06:58:32;-11160.47;;;-3.47;100.00
13954;BME280;7049;49.444;8.522;2023-05-09T07:03:35;-11160.47;;;-3.47;100.00
13954;BME280;7049;49.444;8.522;2023-05-09T07:08:36;-11160.47;;;-3.47;100.00
13954;BME280;7049;49.444;8.522;2023-05-09T07:13:38;-11160.47;;;-3.47;100.00
13954;BME280;7049;49.444;8.522;2023-05-09T07:18:40;-11160.47;;;-3.47;100.00
13954;BME280;7049;49.444;8.522;2023-05-09T07:23:42;-11160.47;;;-3.47;100.00
13954;BME280;7049;49.444;8.522;2023-05-09T07:28:43;-11160.47;;;-3.47;100.00
13954;BME280;7049;49.444;8.522;2023-05-09T07:33:46;-11160.47;;;-3.47;100.00
13954;BME280;7049;49.444;8.522;2023-05-09T07:38:47;-11160.47;;;-3.47;100.00
13954;BME280;7049;49.444;8.522;2023-05-09T07:43:51;-11160.47;;;-3.47;100.00
13954;BME280;7049;49.444;8.522;2023-05-09T07:48:54;-11160.47;;;-3.47;100.00
13954;BME280;7049;49.444;8.522;2023-05-09T07:53:55;-11160.47;;;-3.47;100.00
13954;BME280;7049;49.444;8.522;2023-05-09T07:58:56;-11160.47;;;-3.47;99.04
13954;BME280;7049;49.444;8.522;2023-05-09T08:03:59;-11160.47;;;-3.47;98.39
13954;BME280;7049;49.444;8.522;2023-05-09T08:09:01;-11160.47;;;-3.47;98.76
13954;BME280;7049;49.444;8.522;2023-05-09T08:14:02;-11160.47;;;-3.47;99.71
13954;BME280;7049;49.444;8.522;2023-05-09T08:19:05;-11160.47;;;-3.47;98.36
13954;BME280;7049;49.444;8.522;2023-05-09T08:24:07;-11160.47;;;-3.47;97.85
13954;BME280;7049;49.444;8.522;2023-05-09T08:29:08;-11160.47;;;-3.47;96.03
13954;BME280;7049;49.444;8.522;2023-05-09T08:34:11;-11160.47;;;-3.47;96.66
13954;BME280;7049;49.444;8.522;2023-05-09T08:39:13;-11160.47;;;-3.47;96.55
13954;BME280;7049;49.444;8.522;2023-05-09T08:44:14;-11160.47;;;-3.47;96.30
13954;BME280;7049;49.444;8.522;2023-05-09T08:49:17;-11160.47;;;-3.47;95.37
13954;BME280;7049;49.444;8.522;2023-05-09T08:54:21;-11160.47;;;-3.47;94.06
13954;BME280;7049;49.444;8.522;2023-05-09T08:59:23;-11160.47;;;-3.47;94.34
13954;BME280;7049;49.444;8.522;2023-05-09T09:04:27;-11160.47;;;-3.47;94.78
13954;BME280;7049;49.444;8.522;2023-05-09T09:09:29;-11160.47;;;-3.47;95.05
13954;BME280;7049;49.444;8.522;2023-05-09T09:14:36;-11160.47;;;-3.47;95.26
13954;BME280;7049;49.444;8.522;2023-05-09T09:19:48;-11160.47;;;-3.47;94.86
13954;BME280;7049;49.444;8.522;2023-05-09T09:24:50;-11160.47;;;-3.47;93.76
13954;BME280;7049;49.444;8.522;2023-05-09T09:29:52;-11160.47;;;-3.47;93.57
13954;BME280;7049;49.444;8.522;2023-05-09T09:35:03;-11160.47;;;-3.47;92.16
13954;BME280;7049;49.444;8.522;2023-05-09T09:40:09;-11160.47;;;-3.47;91.87
13954;BME280;7049;49.444;8.522;2023-05-09T09:45:13;-11160.47;;;-3.47;92.68
13954;BME280;7049;49.444;8.522;2023-05-09T09:50:18;-11160.47;;;-3.47;91.74
13954;BME280;7049;49.444;8.522;2023-05-09T09:55:23;-11160.47;;;-3.47;88.08
13954;BME280;7049;49.444;8.522;2023-05-09T10:00:26;-11160.47;;;-3.47;85.87
13954;BME280;7049;49.444;8.522;2023-05-09T10:05:31;-11160.47;;;-3.47;88.10
13954;BME280;7049;49.444;8.522;2023-05-09T10:10:34;-11160.47;;;-3.47;88.87
13954;BME280;7049;49.444;8.522;2023-05-09T10:15:37;-11160.47;;;-3.47;87.26
13954;BME280;7049;49.444;8.522;2023-05-09T10:20:43;-11160.47;;;-3.47;85.64
13954;BME280;7049;49.444;8.522;2023-05-09T10:25:48;-11160.47;;;-3.47;81.55
13954;BME280;7049;49.444;8.522;2023-05-09T10:30:56;-11160.47;;;-3.47;78.11
13954;BME280;7049;49.444;8.522;2023-05-09T10:36:02;-11160.47;;;-3.47;77.93
13954;BME280;7049;49.444;8.522;2023-05-09T10:41:06;-11160.47;;;-3.47;75.97
13954;BME280;7049;49.444;8.522;2023-05-09T10:46:09;-11160.47;;;-3.47;77.66
13954;BME280;7049;49.444;8.522;2023-05-09T10:51:12;-11160.47;;;-3.47;77.44
13954;BME280;7049;49.444;8.522;2023-05-09T10:56:24;-11160.47;;;-3.47;73.74
13954;BME280;7049;49.444;8.522;2023-05-09T11:01:31;-11160.47;;;-3.47;71.69
13954;BME280;7049;49.444;8.522;2023-05-09T11:06:44;-11160.47;;;-3.47;68.23
13954;BME280;7049;49.444;8.522;2023-05-09T11:11:51;-11160.47;;;-3.47;68.70
13954;BME280;7049;49.444;8.522;2023-05-09T11:16:56;-11160.47;;;-3.47;69.41
13954;BME280;7049;49.444;8.522;2023-05-09T11:22:12;-11160.47;;;-3.47;69.28
13954;BME280;7049;49.444;8.522;2023-05-09T11:27:15;-11160.47;;;-3.47;70.92
13954;BME280;7049;49.444;8.522;2023-05-09T11:32:17;-11160.47;;;-3.47;67.86
13954;BME280;7049;49.444;8.522;2023-05-09T11:37:21;-11160.47;;;-3.47;67.11
13954;BME280;7049;49.444;8.522;2023-05-09T11:42:24;-11160.47;;;-3.47;65.78
13954;BME280;7049;49.444;8.522;2023-05-09T11:47:25;-11160.47;;;-3.47;66.69
13954;BME280;7049;49.444;8.522;2023-05-09T11:52:30;-11160.47;;;-3.47;68.40
13954;BME280;7049;49.444;8.522;2023-05-09T11:57:32;-11160.47;;;-3.47;68.18
13954;BME280;7049;49.444;8.522;2023-05-09T12:02:33;-11160.47;;;-3.47;68.39
13954;BME280;7049;49.444;8.522;2023-05-09T12:07:37;-11160.47;;;-3.47;67.69
13954;BME280;7049;49.444;8.522;2023-05-09T12:12:41;-11160.47;;;-3.47;66.88
13954;BME280;7049;49.444;8.522;2023-05-09T12:17:44;-11160.47;;;-3.47;66.43
13954;BME280;7049;49.444;8.522;2023-05-09T12:22:51;-11160.47;;;-3.47;68.68
13954;BME280;7049;49.444;8.522;2023-05-09T12:27:53;-11160.47;;;-3.47;65.83
13954;BME280;7049;49.444;8.522;2023-05-09T12:32:57;-11160.47;;;-3.47;66.10
13954;BME280;7049;49.444;8.522;2023-05-09T12:38:00;-11160.47;;;-3.47;67.88
13954;BME280;7049;49.444;8.522;2023-05-09T12:43:01;-11160.47;;;-3.47;68.17
13954;BME280;7049;49.444;8.522;2023-05-09T12:48:03;-11160.47;;;-3.47;69.83
13954;BME280;7049;49.444;8.522;2023-05-09T12:53:06;-11160.47;;;-3.47;66.91
13954;BME280;7049;49.444;8.522;2023-05-09T12:58:08;-11160.47;;;-3.47;62.57
13954;BME280;7049;49.444;8.522;2023-05-09T13:03:19;-11160.47;;;-3.47;62.96
13954;BME280;7049;49.444;8.522;2023-05-09T13:08:22;-11160.47;;;-3.47;64.52
13954;BME280;7049;49.444;8.522;2023-05-09T13:13:24;-11160.47;;;-3.47;62.53
13954;BME280;7049;49.444;8.522;2023-05-09T13:18:26;-11160.47;;;-3.47;62.26
13954;BME280;7049;49.444;8.522;2023-05-09T13:23:29;-11160.47;;;-3.47;62.77
13954;BME280;7049;49.444;8.522;2023-05-09T13:28:30;-11160.47;;;-3.47;61.84
13954;BME280;7049;49.444;8.522;2023-05-09T13:33:32;-11160.47;;;-3.47;63.71
13954;BME280;7049;49.444;8.522;2023-05-09T13:38:35;-11160.47;;;-3.47;63.35
13954;BME280;7049;49.444;8.522;2023-05-09T13:43:39;-11160.47;;;-3.47;62.29
13954;BME280;7049;49.444;8.522;2023-05-09T13:48:41;-11160.47;;;-3.47;63.21
13954;BME280;7049;49.444;8.522;2023-05-09T13:53:45;-11160.47;;;-3.47;64.63
13954;BME280;7049;49.444;8.522;2023-05-09T13:58:46;-11160.47;;;-3.47;61.71
13954;BME280;7049;49.444;8.522;2023-05-09T14:03:48;-11160.47;;;-3.47;64.48
13954;BME280;7049;49.444;8.522;2023-05-09T14:08:52;-11160.47;;;-3.47;66.00
13954;BME280;7049;49.444;8.522;2023-05-09T14:13:54;-11160.47;;;-3.47;66.40
13954;BME280;7049;49.444;8.522;2023-05-09T14:18:56;-11160.47;;;-3.47;67.71
13954;BME280;7049;49.444;8.522;2023-05-09T14:23:58;-11160.47;;;-3.47;68.12
13954;BME280;7049;49.444;8.522;2023-05-09T14:29:01;-11160.47;;;-3.47;68.96
13954;BME280;7049;49.444;8.522;2023-05-09T14:34:02;-11160.47;;;-3.47;68.24
13954;BME280;7049;49.444;8.522;2023-05-09T14:39:05;-11160.47;;;-3.47;69.61
13954;BME280;7049;49.444;8.522;2023-05-09T14:44:07;-11160.47;;;-3.47;69.86
13954;BME280;7049;49.444;8.522;2023-05-09T14:49:09;-11160.47;;;-3.47;70.16
13954;BME280;7049;49.444;8.522;2023-05-09T14:54:11;-11160.47;;;-3.47;70.35
13954;BME280;7049;49.444;8.522;2023-05-09T14:59:13;-11160.47;;;-3.47;70.75
13954;BME280;7049;49.444;8.522;2023-05-09T15:04:14;-11160.47;;;-3.47;70.31
13954;BME280;7049;49.444;8.522;2023-05-09T15:09:17;-11160.47;;;-3.47;71.43
13954;BME280;7049;49.444;8.522;2023-05-09T15:14:23;-11160.47;;;-3.47;71.40
13954;BME280;7049;49.444;8.522;2023-05-09T15:19:25;-11160.47;;;-3.47;70.29
13954;BME280;7049;49.444;8.522;2023-05-09T15:24:35;-11160.47;;;-3.47;71.60
13954;BME280;7049;49.444;8.522;2023-05-09T15:29:43;-11160.47;;;-3.47;71.63
13954;BME280;7049;49.444;8.522;2023-05-09T15:34:46;-11160.47;;;-3.47;68.79
13954;BME280;7049;49.444;8.522;2023-05-09T15:39:50;-11160.47;;;-3.47;68.14
13954;BME280;7049;49.444;8.522;2023-05-09T15:44:52;-11160.47;;;-3.47;68.29
13954;BME280;7049;49.444;8.522;2023-05-09T15:49:54;-11160.47;;;-3.47;68.03
13954;BME280;7049;49.444;8.522;2023-05-09T15:54:56;-11160.47;;;-3.47;69.97
13954;BME280;7049;49.444;8.522;2023-05-09T16:00:05;-11160.47;;;-3.47;70.83
13954;BME280;7049;49.444;8.522;2023-05-09T16:05:09;-11160.47;;;-3.47;71.06
13954;BME280;7049;49.444;8.522;2023-05-09T16:10:13;-11160.47;;;-3.47;71.39
13954;BME280;7049;49.444;8.522;2023-05-09T16:15:16;-11160.47;;;-3.47;72.23
13954;BME280;7049;49.444;8.522;2023-05-09T16:20:19;-11160.47;;;-3.47;72.94
13954;BME280;7049;49.444;8.522;2023-05-09T16:25:23;-11160.47;;;-3.47;74.99
13954;BME280;7049;49.444;8.522;2023-05-09T16:30:25;-11160.47;;;-3.47;75.89
13954;BME280;7049;49.444;8.522;2023-05-09T16:35:28;-11160.47;;;-3.47;77.11
13954;BME280;7049;49.444;8.522;2023-05-09T16:40:32;-11160.47;;;-3.47;77.77
13954;BME280;7049;49.444;8.522;2023-05-09T16:45:36;-11160.47;;;-3.47;78.41
13954;BME280;7049;49.444;8.522;2023-05-09T16:50:41;-11160.47;;;-3.47;79.81
13954;BME280;7049;49.444;8.522;2023-05-09T16:55:45;-11160.47;;;-3.47;80.25
13954;BME280;7049;49.444;8.522;2023-05-09T17:00:48;-11160.47;;;-3.47;81.60
13954;BME280;7049;49.444;8.522;2023-05-09T17:05:50;-11160.47;;;-3.47;81.24
13954;BME280;7049;49.444;8.522;2023-05-09T17:10:52;-11160.47;;;-3.47;81.70
13954;BME280;7049;49.444;8.522;2023-05-09T17:15:54;-11160.47;;;-3.47;80.45
13954;BME280;7049;49.444;8.522;2023-05-09T17:20:56;-11160.47;;;-3.47;80.46
13954;BME280;7049;49.444;8.522;2023-05-09T17:25:58;-11160.47;;;-3.47;81.92
13954;BME280;7049;49.444;8.522;2023-05-09T17:31:00;-11160.47;;;-3.47;82.16
13954;BME280;7049;49.444;8.522;2023-05-09T17:36:02;-11160.47;;;-3.47;83.47
13954;BME280;7049;49.444;8.522;2023-05-09T17:41:05;-11160.47;;;-3.47;83.99
13954;BME280;7049;49.444;8.522;2023-05-09T17:46:06;-11160.47;;;-3.47;86.14
13954;BME280;7049;49.444;8.522;2023-05-09T17:51:08;-11160.47;;;-3.47;88.00
13954;BME280;7049;49.444;8.522;2023-05-09T17:56:10;-11160.47;;;-3.47;88.65
13954;BME280;7049;49.444;8.522;2023-05-09T18:01:12;-11160.47;;;-3.47;89.60
13954;BME280;7049;49.444;8.522;2023-05-09T18:06:16;-11160.47;;;-3.47;91.82
13954;BME280;7049;49.444;8.522;2023-05-09T18:11:20;-11160.47;;;-3.47;85.24
13954;BME280;7049;49.444;8.522;2023-05-09T18:16:24;-11160.47;;;-3.47;89.76
13954;BME280;7049;49.444;8.522;2023-05-09T18:21:31;-11160.47;;;-3.47;93.39
13954;BME280;7049;49.444;8.522;2023-05-09T18:26:39;-11160.47;;;-3.47;95.01
13954;BME280;7049;49.444;8.522;2023-05-09T18:31:45;-11160.47;;;-3.47;95.90
13954;BME280;7049;49.444;8.522;2023-05-09T18:36:55;-11160.47;;;-3.47;95.96
13954;BME280;7049;49.444;8.522;2023-05-09T18:42:00;-11160.47;;;-3.47;97.13
13954;BME280;7049;49.444;8.522;2023-05-09T18:47:03;-11160.47;;;-3.47;96.94
13954;BME280;7049;49.444;8.522;2023-05-09T18:52:09;-11160.47;;;-3.47;97.50
13954;BME280;7049;49.444;8.522;2023-05-09T18:57:14;-11160.47;;;-3.47;97.53
13954;BME280;7049;49.444;8.522;2023-05-09T19:02:22;-11160.47;;;-3.47;97.66
13954;BME280;7049;49.444;8.522;2023-05-09T19:07:28;-11160.47;;;-3.47;98.49
13954;BME280;7049;49.444;8.522;2023-05-09T19:12:34;-11160.47;;;-3.47;98.93
13954;BME280;7049;49.444;8.522;2023-05-09T19:17:39;-11160.47;;;-3.47;99.23
13954;BME280;7049;49.444;8.522;2023-05-09T19:22:42;-11160.47;;;-3.47;99.82
13954;BME280;7049;49.444;8.522;2023-05-09T19:27:52;-11160.47;;;-3.47;100.00
13954;BME280;7049;49.444;8.522;2023-05-09T19:32:55;-11160.47;;;-3.47;100.00
13954;BME280;7049;49.444;8.522;2023-05-09T19:38:10;-11160.47;;;-3.47;99.69
13954;BME280;7049;49.444;8.522;2023-05-09T19:43:19;-11160.47;;;-3.47;100.00
13954;BME280;7049;49.444;8.522;2023-05-09T19:48:22;-11160.47;;;-3.47;100.00
13954;BME280;7049;49.444;8.522;2023-05-09T19:53:30;-11160.47;;;-3.47;100.00
13954;BME280;7049;49.444;8.522;2023-05-09T19:58:34;-11160.47;;;-3.47;100.00
13954;BME280;7049;49.444;8.522;2023-05-09T20:03:37;-11160.47;;;-3.47;100.00
13954;BME280;7049;49.444;8.522;2023-05-09T20:08:41;-11160.47;;;-3.47;100.00
13954;BME280;7049;49.444;8.522;2023-05-09T20:13:50;-11160.47;;;-3.47;100.00
13954;BME280;7049;49.444;8.522;2023-05-09T20:19:04;-11160.47;;;-3.47;100.00
13954;BME280;7049;49.444;8.522;2023-05-09T20:24:30;-11160.47;;;-3.47;100.00
13954;BME280;7049;49.444;8.522;2023-05-09T20:30:11;-11160.47;;;-3.47;100.00
13954;BME280;7049;49.444;8.522;2023-05-09T20:35:21;-11160.47;;;-3.47;100.00
13954;BME280;7049;49.444;8.522;2023-05-09T20:40:29;-11160.47;;;-3.47;100.00
13954;BME280;7049;49.444;8.522;2023-05-09T20:45:42;-11160.47;;;-3.47;100.00
13954;BME280;7049;49.444;8.522;2023-05-09T20:50:56;-11160.47;;;-3.47;100.00
13954;BME280;7049;49.444;8.522;2023-05-09T20:56:15;-11160.47;;;-3.47;100.00
13954;BME280;7049;49.444;8.522;2023-05-09T21:01:31;-11160.47;;;-3.47;100.00
13954;BME280;7049;49.444;8.522;2023-05-09T21:06:36;-11160.47;;;-3.47;100.00
13954;BME280;7049;49.444;8.522;2023-05-09T21:11:50;-11160.47;;;-3.47;100.00
13954;BME280;7049;49.444;8.522;2023-05-09T21:17:12;-11160.47;;;-3.47;100.00
13954;BME280;7049;49.444;8.522;2023-05-09T21:22:23;-11160.47;;;-3.47;100.00
13954;BME280;7049;49.444;8.522;2023-05-09T21:27:53;-11160.47;;;-3.47;100.00
13954;BME280;7049;49.444;8.522;2023-05-09T21:33:43;-11160.47;;;-3.47;100.00
13954;BME280;7049;49.444;8.522;2023-05-09T21:39:59;-11160.47;;;-3.47;100.00
13954;BME280;7049;49.444;8.522;2023-05-09T21:45:31;-11160.47;;;-3.47;100.00
13954;BME280;7049;49.444;8.522;2023-05-09T21:50:54;-11160.47;;;-3.47;100.00
13954;BME280;7049;49.444;8.522;2023-05-09T21:55:56;-11160.47;;;-3.47;100.00
13954;BME280;7049;49.444;8.522;2023-05-09T22:01:01;-11160.47;;;-3.47;100.00
13954;BME280;7049;49.444;8.522;2023-05-09T22:06:05;-11160.47;;;-3.47;100.00
13954;BME280;7049;49.444;8.522;2023-05-09T22:11:06;-11160.47;;;-3.47;100.00
13954;BME280;7049;49.444;8.522;2023-05-09T22:16:08;-11160.47;;;-3.47;100.00
13954;BME280;7049;49.444;8.522;2023-05-09T22:21:11;-11160.47;;;-3.47;100.00
13954;BME280;7049;49.444;8.522;2023-05-09T22:26:12;-11160.47;;;-3.47;100.00
13954;BME280;7049;49.444;8.522;2023-05-09T22:31:14;-11160.47;;;-3.47;100.00
13954;BME280;7049;49.444;8.522;2023-05-09T22:36:16;-11160.47;;;-3.47;100.00
13954;BME280;7049;49.444;8.522;2023-05-09T22:41:18;-11160.47;;;-3.47;100.00
13954;BME280;7049;49.444;8.522;2023-05-09T22:46:20;-11160.47;;;-3.47;100.00
13954;BME280;7049;49.444;8.522;2023-05-09T22:51:23;-11160.47;;;-3.47;100.00
13954;BME280;7049;49.444;8.522;2023-05-09T22:56:25;-11160.47;;;-3.47;100.00
13954;BME280;7049;49.444;8.522;2023-05-09T23:01:26;-11160.47;;;-3.47;100.00
13954;BME280;7049;49.444;8.522;2023-05-09T23:06:29;-11160.47;;;-3.47;100.00
13954;BME280;7049;49.444;8.522;2023-05-09T23:11:31;-11160.47;;;-3.47;100.00
13954;BME280;7049;49.444;8.522;2023-05-09T23:16:33;-11160.47;;;-3.47;100.00
13954;BME280;7049;49.444;8.522;2023-05-09T23:21:38;-11160.47;;;-3.47;100.00
13954;BME280;7049;49.444;8.522;2023-05-09T23:26:40;-11160.47;;;-3.47;100.00
13954;BME280;7049;49.444;8.522;2023-05-09T23:31:41;-11160.47;;;-3.47;100.00
13954;BME280;7049;49.444;8.522;2023-05-09T23:36:44;-11160.47;;;-3.47;100.00
13954;BME280;7049;49.444;8.522;2023-05-09T23:41:45;-11160.47;;;-3.47;100.00
13954;BME280;7049;49.444;8.522;2023-05-09T23:46:47;-11160.47;;;-3.47;100.00
13954;BME280;7049;49.444;8.522;2023-05-09T23:51:50;-11160.47;;;-3.47;100.00
13954;BME280;7049;49.444;8.522;2023-05-09T23:56:51;-11160.47;;;-3.47;100.00
